sensor_id;sensor_type;location;lat;lon;timestamp;temperature;humidity
69359;HTU21D;56520;49.066;8.660;2023-08-17T00:01:25;19.44;92.74
69359;HTU21D;56520;49.066;8.660;2023-08-17T00:03:51;19.39;92.83
69359;HTU21D;56520;49.066;8.660;2023-08-17T00:06:16;19.36;92.88
69359;HTU21D;56520;49.066;8.660;2023-08-17T00:08:42;19.35;93.08
69359;HTU21D;56520;49.066;8.660;2023-08-17T00:11:08;19.32;93.14
69359;HTU21D;56520;49.066;8.660;2023-08-17T00:13:34;19.30;93.17
69359;HTU21D;56520;49.066;8.660;2023-08-17T00:15:59;19.28;93.17
69359;HTU21D;56520;49.066;8.660;2023-08-17T00:18:24;19.25;93.13
69359;HTU21D;56520;49.066;8.660;2023-08-17T00:20:50;19.22;93.23
69359;HTU21D;56520;49.066;8.660;2023-08-17T00:23:15;19.22;93.38
69359;HTU21D;56520;49.066;8.660;2023-08-17T00:25:41;19.24;93.46
69359;HTU21D;56520;49.066;8.660;2023-08-17T00:28:06;19.23;93.44
69359;HTU21D;56520;49.066;8.660;2023-08-17T00:30:32;19.20;93.48
69359;HTU21D;56520;49.066;8.660;2023-08-17T00:33:01;19.18;93.47
69359;HTU21D;56520;49.066;8.660;2023-08-17T00:35:26;19.17;93.49
69359;HTU21D;56520;49.066;8.660;2023-08-17T00:37:52;19.12;93.43
69359;HTU21D;56520;49.066;8.660;2023-08-17T00:40:20;19.09;93.46
69359;HTU21D;56520;49.066;8.660;2023-08-17T00:42:45;19.07;93.56
69359;HTU21D;56520;49.066;8.660;2023-08-17T00:45:11;19.02;93.66
69359;HTU21D;56520;49.066;8.660;2023-08-17T00:47:37;18.97;93.70
69359;HTU21D;56520;49.066;8.660;2023-08-17T00:50:03;18.91;93.81
69359;HTU21D;56520;49.066;8.660;2023-08-17T00:52:30;18.88;93.94
69359;HTU21D;56520;49.066;8.660;2023-08-17T00:54:57;18.85;93.98
69359;HTU21D;56520;49.066;8.660;2023-08-17T00:57:26;18.83;94.03
69359;HTU21D;56520;49.066;8.660;2023-08-17T00:59:51;18.81;94.00
69359;HTU21D;56520;49.066;8.660;2023-08-17T01:02:18;18.78;93.96
69359;HTU21D;56520;49.066;8.660;2023-08-17T01:04:44;18.76;93.97
69359;HTU21D;56520;49.066;8.660;2023-08-17T01:07:09;18.73;94.01
69359;HTU21D;56520;49.066;8.660;2023-08-17T01:09:35;18.76;94.11
69359;HTU21D;56520;49.066;8.660;2023-08-17T01:17:26;18.73;94.11
69359;HTU21D;56520;49.066;8.660;2023-08-17T01:19:55;18.72;94.17
69359;HTU21D;56520;49.066;8.660;2023-08-17T01:22:21;18.69;94.14
69359;HTU21D;56520;49.066;8.660;2023-08-17T01:24:48;18.67;94.18
69359;HTU21D;56520;49.066;8.660;2023-08-17T01:27:13;18.65;94.33
69359;HTU21D;56520;49.066;8.660;2023-08-17T01:29:38;18.67;94.36
69359;HTU21D;56520;49.066;8.660;2023-08-17T01:32:28;18.65;94.32
69359;HTU21D;56520;49.066;8.660;2023-08-17T01:34:58;18.64;94.43
69359;HTU21D;56520;49.066;8.660;2023-08-17T01:37:28;18.59;94.61
69359;HTU21D;56520;49.066;8.660;2023-08-17T01:39:55;18.57;94.60
69359;HTU21D;56520;49.066;8.660;2023-08-17T01:42:22;18.53;94.59
69359;HTU21D;56520;49.066;8.660;2023-08-17T01:44:47;18.50;94.71
69359;HTU21D;56520;49.066;8.660;2023-08-17T01:47:13;18.44;94.58
69359;HTU21D;56520;49.066;8.660;2023-08-17T01:49:38;18.42;94.74
69359;HTU21D;56520;49.066;8.660;2023-08-17T01:52:04;18.38;94.81
69359;HTU21D;56520;49.066;8.660;2023-08-17T01:54:30;18.36;94.77
69359;HTU21D;56520;49.066;8.660;2023-08-17T01:56:55;18.35;94.81
69359;HTU21D;56520;49.066;8.660;2023-08-17T01:59:20;18.34;94.85
69359;HTU21D;56520;49.066;8.660;2023-08-17T02:01:46;18.33;94.90
69359;HTU21D;56520;49.066;8.660;2023-08-17T02:04:11;18.32;94.91
69359;HTU21D;56520;49.066;8.660;2023-08-17T02:06:36;18.33;94.96
69359;HTU21D;56520;49.066;8.660;2023-08-17T02:09:02;18.30;95.09
69359;HTU21D;56520;49.066;8.660;2023-08-17T02:11:27;18.28;94.97
69359;HTU21D;56520;49.066;8.660;2023-08-17T02:13:53;18.27;94.93
69359;HTU21D;56520;49.066;8.660;2023-08-17T02:16:18;18.27;95.04
69359;HTU21D;56520;49.066;8.660;2023-08-17T02:18:44;18.27;95.03
69359;HTU21D;56520;49.066;8.660;2023-08-17T02:21:09;18.26;94.95
69359;HTU21D;56520;49.066;8.660;2023-08-17T02:23:34;18.25;94.99
69359;HTU21D;56520;49.066;8.660;2023-08-17T02:26:00;18.26;95.05
69359;HTU21D;56520;49.066;8.660;2023-08-17T02:28:25;18.26;95.05
69359;HTU21D;56520;49.066;8.660;2023-08-17T02:30:58;18.26;95.07
69359;HTU21D;56520;49.066;8.660;2023-08-17T02:33:23;18.25;95.04
69359;HTU21D;56520;49.066;8.660;2023-08-17T02:35:50;18.23;95.00
69359;HTU21D;56520;49.066;8.660;2023-08-17T02:38:15;18.22;94.99
69359;HTU21D;56520;49.066;8.660;2023-08-17T02:40:40;18.21;95.04
69359;HTU21D;56520;49.066;8.660;2023-08-17T02:43:06;18.20;95.06
69359;HTU21D;56520;49.066;8.660;2023-08-17T02:45:33;18.15;95.01
69359;HTU21D;56520;49.066;8.660;2023-08-17T02:47:59;18.13;94.98
69359;HTU21D;56520;49.066;8.660;2023-08-17T02:50:24;18.09;94.88
69359;HTU21D;56520;49.066;8.660;2023-08-17T02:52:49;18.03;94.83
69359;HTU21D;56520;49.066;8.660;2023-08-17T02:55:15;17.99;94.86
69359;HTU21D;56520;49.066;8.660;2023-08-17T02:57:40;17.97;94.87
69359;HTU21D;56520;49.066;8.660;2023-08-17T03:00:07;17.92;94.84
69359;HTU21D;56520;49.066;8.660;2023-08-17T03:02:34;17.90;94.87
69359;HTU21D;56520;49.066;8.660;2023-08-17T03:04:59;17.89;94.93
69359;HTU21D;56520;49.066;8.660;2023-08-17T03:07:24;17.83;94.87
69359;HTU21D;56520;49.066;8.660;2023-08-17T03:09:50;17.80;94.86
69359;HTU21D;56520;49.066;8.660;2023-08-17T03:12:15;17.77;94.90
69359;HTU21D;56520;49.066;8.660;2023-08-17T03:14:41;17.74;94.94
69359;HTU21D;56520;49.066;8.660;2023-08-17T03:17:06;17.70;95.04
69359;HTU21D;56520;49.066;8.660;2023-08-17T03:19:31;17.72;95.12
69359;HTU21D;56520;49.066;8.660;2023-08-17T03:21:57;17.72;95.19
69359;HTU21D;56520;49.066;8.660;2023-08-17T03:24:22;17.70;95.20
69359;HTU21D;56520;49.066;8.660;2023-08-17T03:26:47;17.72;95.27
69359;HTU21D;56520;49.066;8.660;2023-08-17T03:29:13;17.70;95.32
69359;HTU21D;56520;49.066;8.660;2023-08-17T03:31:38;17.72;95.35
69359;HTU21D;56520;49.066;8.660;2023-08-17T03:34:03;17.73;95.33
69359;HTU21D;56520;49.066;8.660;2023-08-17T03:36:29;17.72;95.31
69359;HTU21D;56520;49.066;8.660;2023-08-17T03:38:54;17.72;95.35
69359;HTU21D;56520;49.066;8.660;2023-08-17T03:41:21;17.72;95.36
69359;HTU21D;56520;49.066;8.660;2023-08-17T03:43:48;17.70;95.39
69359;HTU21D;56520;49.066;8.660;2023-08-17T03:46:14;17.72;95.46
69359;HTU21D;56520;49.066;8.660;2023-08-17T03:48:39;17.72;95.51
69359;HTU21D;56520;49.066;8.660;2023-08-17T03:51:05;17.70;95.52
69359;HTU21D;56520;49.066;8.660;2023-08-17T03:53:30;17.72;95.52
69359;HTU21D;56520;49.066;8.660;2023-08-17T03:55:58;17.72;95.55
69359;HTU21D;56520;49.066;8.660;2023-08-17T03:58:23;17.74;95.59
69359;HTU21D;56520;49.066;8.660;2023-08-17T04:00:52;17.76;95.63
69359;HTU21D;56520;49.066;8.660;2023-08-17T04:03:18;17.78;95.72
69359;HTU21D;56520;49.066;8.660;2023-08-17T04:05:47;17.83;95.79
69359;HTU21D;56520;49.066;8.660;2023-08-17T04:08:12;17.88;95.84
69359;HTU21D;56520;49.066;8.660;2023-08-17T04:10:39;17.89;95.83
69359;HTU21D;56520;49.066;8.660;2023-08-17T04:13:04;17.91;95.81
69359;HTU21D;56520;49.066;8.660;2023-08-17T04:15:30;17.93;95.88
69359;HTU21D;56520;49.066;8.660;2023-08-17T04:17:55;17.96;95.86
69359;HTU21D;56520;49.066;8.660;2023-08-17T04:20:20;17.96;95.86
69359;HTU21D;56520;49.066;8.660;2023-08-17T04:22:46;17.95;95.86
69359;HTU21D;56520;49.066;8.660;2023-08-17T04:25:13;17.97;95.90
69359;HTU21D;56520;49.066;8.660;2023-08-17T04:27:38;17.99;95.93
69359;HTU21D;56520;49.066;8.660;2023-08-17T04:30:07;18.02;95.98
69359;HTU21D;56520;49.066;8.660;2023-08-17T04:32:32;18.02;95.97
69359;HTU21D;56520;49.066;8.660;2023-08-17T04:34:58;18.03;96.01
69359;HTU21D;56520;49.066;8.660;2023-08-17T04:37:23;18.04;96.01
69359;HTU21D;56520;49.066;8.660;2023-08-17T04:39:48;18.04;96.02
69359;HTU21D;56520;49.066;8.660;2023-08-17T04:42:14;18.04;96.02
69359;HTU21D;56520;49.066;8.660;2023-08-17T04:44:39;18.03;96.04
69359;HTU21D;56520;49.066;8.660;2023-08-17T04:47:05;18.02;96.03
69359;HTU21D;56520;49.066;8.660;2023-08-17T04:49:31;18.02;96.05
69359;HTU21D;56520;49.066;8.660;2023-08-17T04:51:56;18.00;96.05
69359;HTU21D;56520;49.066;8.660;2023-08-17T04:54:22;17.99;96.07
69359;HTU21D;56520;49.066;8.660;2023-08-17T04:56:47;18.00;96.08
69359;HTU21D;56520;49.066;8.660;2023-08-17T04:59:14;18.03;96.10
69359;HTU21D;56520;49.066;8.660;2023-08-17T05:01:40;18.05;96.08
69359;HTU21D;56520;49.066;8.660;2023-08-17T05:04:05;18.09;96.10
69359;HTU21D;56520;49.066;8.660;2023-08-17T05:06:31;18.15;96.10
69359;HTU21D;56520;49.066;8.660;2023-08-17T05:08:57;18.19;96.10
69359;HTU21D;56520;49.066;8.660;2023-08-17T05:11:22;18.21;96.12
69359;HTU21D;56520;49.066;8.660;2023-08-17T05:13:48;18.23;96.14
69359;HTU21D;56520;49.066;8.660;2023-08-17T05:16:14;18.25;96.16
69359;HTU21D;56520;49.066;8.660;2023-08-17T05:18:39;18.28;96.16
69359;HTU21D;56520;49.066;8.660;2023-08-17T05:21:07;18.34;96.15
69359;HTU21D;56520;49.066;8.660;2023-08-17T05:23:33;18.37;96.13
69359;HTU21D;56520;49.066;8.660;2023-08-17T05:25:58;18.40;96.09
69359;HTU21D;56520;49.066;8.660;2023-08-17T05:28:24;18.42;96.07
69359;HTU21D;56520;49.066;8.660;2023-08-17T05:30:49;18.44;96.06
69359;HTU21D;56520;49.066;8.660;2023-08-17T05:33:15;18.43;96.03
69359;HTU21D;56520;49.066;8.660;2023-08-17T05:35:40;18.44;96.02
69359;HTU21D;56520;49.066;8.660;2023-08-17T05:38:08;18.44;95.98
69359;HTU21D;56520;49.066;8.660;2023-08-17T05:40:33;18.48;95.99
69359;HTU21D;56520;49.066;8.660;2023-08-17T05:42:59;18.51;96.00
69359;HTU21D;56520;49.066;8.660;2023-08-17T05:45:24;18.53;95.97
69359;HTU21D;56520;49.066;8.660;2023-08-17T05:47:50;18.56;95.94
69359;HTU21D;56520;49.066;8.660;2023-08-17T05:50:15;18.61;95.94
69359;HTU21D;56520;49.066;8.660;2023-08-17T05:52:41;18.63;95.96
69359;HTU21D;56520;49.066;8.660;2023-08-17T05:55:07;18.66;95.97
69359;HTU21D;56520;49.066;8.660;2023-08-17T05:57:32;18.71;96.01
69359;HTU21D;56520;49.066;8.660;2023-08-17T05:59:57;18.78;96.04
69359;HTU21D;56520;49.066;8.660;2023-08-17T06:02:23;18.81;96.00
69359;HTU21D;56520;49.066;8.660;2023-08-17T06:04:48;18.84;95.96
69359;HTU21D;56520;49.066;8.660;2023-08-17T06:07:14;18.88;95.94
69359;HTU21D;56520;49.066;8.660;2023-08-17T06:09:39;18.94;95.92
69359;HTU21D;56520;49.066;8.660;2023-08-17T06:12:05;18.97;95.94
69359;HTU21D;56520;49.066;8.660;2023-08-17T06:14:32;19.02;95.89
69359;HTU21D;56520;49.066;8.660;2023-08-17T06:16:58;19.07;95.88
69359;HTU21D;56520;49.066;8.660;2023-08-17T06:19:24;19.10;95.86
69359;HTU21D;56520;49.066;8.660;2023-08-17T06:21:49;19.15;95.87
69359;HTU21D;56520;49.066;8.660;2023-08-17T06:24:14;19.21;95.88
69359;HTU21D;56520;49.066;8.660;2023-08-17T06:26:40;19.26;95.90
69359;HTU21D;56520;49.066;8.660;2023-08-17T06:29:05;19.29;95.83
69359;HTU21D;56520;49.066;8.660;2023-08-17T06:31:31;19.33;95.76
69359;HTU21D;56520;49.066;8.660;2023-08-17T06:33:56;19.39;95.71
69359;HTU21D;56520;49.066;8.660;2023-08-17T06:36:22;19.44;95.68
69359;HTU21D;56520;49.066;8.660;2023-08-17T06:38:47;19.51;95.63
69359;HTU21D;56520;49.066;8.660;2023-08-17T06:41:13;19.57;95.53
69359;HTU21D;56520;49.066;8.660;2023-08-17T06:43:38;19.60;95.45
69359;HTU21D;56520;49.066;8.660;2023-08-17T06:46:04;19.66;95.49
69359;HTU21D;56520;49.066;8.660;2023-08-17T06:48:29;19.71;95.51
69359;HTU21D;56520;49.066;8.660;2023-08-17T06:50:56;19.81;95.56
69359;HTU21D;56520;49.066;8.660;2023-08-17T06:53:22;19.87;95.52
69359;HTU21D;56520;49.066;8.660;2023-08-17T06:55:47;19.91;95.40
69359;HTU21D;56520;49.066;8.660;2023-08-17T06:58:13;19.94;95.33
69359;HTU21D;56520;49.066;8.660;2023-08-17T07:00:38;20.00;95.26
69359;HTU21D;56520;49.066;8.660;2023-08-17T07:03:08;20.04;95.20
69359;HTU21D;56520;49.066;8.660;2023-08-17T07:05:34;20.11;95.13
69359;HTU21D;56520;49.066;8.660;2023-08-17T07:07:59;20.18;95.14
69359;HTU21D;56520;49.066;8.660;2023-08-17T07:10:27;20.27;95.08
69359;HTU21D;56520;49.066;8.660;2023-08-17T07:12:52;20.33;95.04
69359;HTU21D;56520;49.066;8.660;2023-08-17T07:15:18;20.40;94.94
69359;HTU21D;56520;49.066;8.660;2023-08-17T07:17:44;20.47;94.86
69359;HTU21D;56520;49.066;8.660;2023-08-17T07:20:09;20.50;94.69
69359;HTU21D;56520;49.066;8.660;2023-08-17T07:22:36;20.55;94.59
69359;HTU21D;56520;49.066;8.660;2023-08-17T07:25:02;20.63;94.55
69359;HTU21D;56520;49.066;8.660;2023-08-17T07:27:28;20.70;94.46
69359;HTU21D;56520;49.066;8.660;2023-08-17T07:29:54;20.77;94.39
69359;HTU21D;56520;49.066;8.660;2023-08-17T07:32:19;20.84;94.30
69359;HTU21D;56520;49.066;8.660;2023-08-17T07:34:46;20.86;93.98
69359;HTU21D;56520;49.066;8.660;2023-08-17T07:37:11;20.87;93.81
69359;HTU21D;56520;49.066;8.660;2023-08-17T07:39:37;20.91;93.77
69359;HTU21D;56520;49.066;8.660;2023-08-17T07:42:02;20.93;93.64
69359;HTU21D;56520;49.066;8.660;2023-08-17T07:44:28;20.95;93.37
69359;HTU21D;56520;49.066;8.660;2023-08-17T07:46:54;21.02;93.33
69359;HTU21D;56520;49.066;8.660;2023-08-17T07:49:19;21.04;92.73
69359;HTU21D;56520;49.066;8.660;2023-08-17T07:51:45;21.09;92.76
69359;HTU21D;56520;49.066;8.660;2023-08-17T07:54:11;21.16;92.79
69359;HTU21D;56520;49.066;8.660;2023-08-17T07:56:36;21.23;92.78
69359;HTU21D;56520;49.066;8.660;2023-08-17T07:59:01;21.32;92.69
69359;HTU21D;56520;49.066;8.660;2023-08-17T08:01:28;21.40;92.57
69359;HTU21D;56520;49.066;8.660;2023-08-17T08:03:53;21.42;92.10
69359;HTU21D;56520;49.066;8.660;2023-08-17T08:06:18;21.43;91.39
69359;HTU21D;56520;49.066;8.660;2023-08-17T08:08:45;21.46;91.20
69359;HTU21D;56520;49.066;8.660;2023-08-17T08:11:11;21.50;91.26
69359;HTU21D;56520;49.066;8.660;2023-08-17T08:13:36;21.54;91.15
69359;HTU21D;56520;49.066;8.660;2023-08-17T08:16:02;21.63;91.24
69359;HTU21D;56520;49.066;8.660;2023-08-17T08:18:28;21.67;90.90
69359;HTU21D;56520;49.066;8.660;2023-08-17T08:20:53;21.69;90.89
69359;HTU21D;56520;49.066;8.660;2023-08-17T08:23:18;21.70;90.89
69359;HTU21D;56520;49.066;8.660;2023-08-17T08:25:44;21.75;90.54
69359;HTU21D;56520;49.066;8.660;2023-08-17T08:28:09;21.70;89.89
69359;HTU21D;56520;49.066;8.660;2023-08-17T08:30:35;21.70;90.23
69359;HTU21D;56520;49.066;8.660;2023-08-17T08:33:01;21.75;90.23
69359;HTU21D;56520;49.066;8.660;2023-08-17T08:35:28;21.78;90.19
69359;HTU21D;56520;49.066;8.660;2023-08-17T08:37:54;21.81;90.07
69359;HTU21D;56520;49.066;8.660;2023-08-17T08:40:31;21.89;90.01
69359;HTU21D;56520;49.066;8.660;2023-08-17T08:42:57;21.95;89.91
69359;HTU21D;56520;49.066;8.660;2023-08-17T08:45:23;22.01;89.54
69359;HTU21D;56520;49.066;8.660;2023-08-17T08:47:49;22.05;89.46
69359;HTU21D;56520;49.066;8.660;2023-08-17T08:50:20;22.13;89.33
69359;HTU21D;56520;49.066;8.660;2023-08-17T08:52:59;22.19;89.22
69359;HTU21D;56520;49.066;8.660;2023-08-17T08:55:30;22.29;89.12
69359;HTU21D;56520;49.066;8.660;2023-08-17T08:57:58;22.36;88.81
69359;HTU21D;56520;49.066;8.660;2023-08-17T09:00:24;22.39;87.95
69359;HTU21D;56520;49.066;8.660;2023-08-17T09:02:51;22.44;87.54
69359;HTU21D;56520;49.066;8.660;2023-08-17T09:05:17;22.47;86.97
69359;HTU21D;56520;49.066;8.660;2023-08-17T09:07:43;22.55;87.00
69359;HTU21D;56520;49.066;8.660;2023-08-17T09:10:09;22.67;87.45
69359;HTU21D;56520;49.066;8.660;2023-08-17T09:12:35;22.81;87.28
69359;HTU21D;56520;49.066;8.660;2023-08-17T09:15:00;22.87;86.72
69359;HTU21D;56520;49.066;8.660;2023-08-17T09:17:27;22.86;85.93
69359;HTU21D;56520;49.066;8.660;2023-08-17T09:19:53;22.92;85.95
69359;HTU21D;56520;49.066;8.660;2023-08-17T09:22:25;23.00;85.46
69359;HTU21D;56520;49.066;8.660;2023-08-17T09:24:51;23.16;85.45
69359;HTU21D;56520;49.066;8.660;2023-08-17T09:27:17;23.30;85.22
69359;HTU21D;56520;49.066;8.660;2023-08-17T09:29:43;23.39;85.12
69359;HTU21D;56520;49.066;8.660;2023-08-17T09:32:11;23.52;84.55
69359;HTU21D;56520;49.066;8.660;2023-08-17T09:34:36;23.55;83.83
69359;HTU21D;56520;49.066;8.660;2023-08-17T09:37:03;23.58;83.46
69359;HTU21D;56520;49.066;8.660;2023-08-17T09:39:29;23.58;83.22
69359;HTU21D;56520;49.066;8.660;2023-08-17T09:41:55;23.54;83.13
69359;HTU21D;56520;49.066;8.660;2023-08-17T09:44:21;23.42;81.94
69359;HTU21D;56520;49.066;8.660;2023-08-17T09:46:47;23.37;82.91
69359;HTU21D;56520;49.066;8.660;2023-08-17T09:49:13;23.37;83.23
69359;HTU21D;56520;49.066;8.660;2023-08-17T09:51:42;23.53;83.36
69359;HTU21D;56520;49.066;8.660;2023-08-17T09:54:07;23.89;83.11
69359;HTU21D;56520;49.066;8.660;2023-08-17T09:56:34;24.34;81.80
69359;HTU21D;56520;49.066;8.660;2023-08-17T09:58:59;24.92;81.59
69359;HTU21D;56520;49.066;8.660;2023-08-17T10:01:27;25.21;79.37
69359;HTU21D;56520;49.066;8.660;2023-08-17T10:03:55;25.12;78.29
69359;HTU21D;56520;49.066;8.660;2023-08-17T10:06:24;25.22;77.88
69359;HTU21D;56520;49.066;8.660;2023-08-17T10:08:52;25.33;75.91
69359;HTU21D;56520;49.066;8.660;2023-08-17T10:11:21;25.54;77.14
69359;HTU21D;56520;49.066;8.660;2023-08-17T10:13:52;25.72;74.54
69359;HTU21D;56520;49.066;8.660;2023-08-17T10:16:29;25.64;74.67
69359;HTU21D;56520;49.066;8.660;2023-08-17T10:19:18;25.58;76.06
69359;HTU21D;56520;49.066;8.660;2023-08-17T10:22:10;25.87;74.71
69359;HTU21D;56520;49.066;8.660;2023-08-17T10:24:38;25.75;74.41
69359;HTU21D;56520;49.066;8.660;2023-08-17T10:27:05;25.60;74.27
69359;HTU21D;56520;49.066;8.660;2023-08-17T10:29:34;25.77;74.17
69359;HTU21D;56520;49.066;8.660;2023-08-17T10:32:01;26.13;73.32
69359;HTU21D;56520;49.066;8.660;2023-08-17T10:34:27;26.37;73.83
69359;HTU21D;56520;49.066;8.660;2023-08-17T10:36:53;26.13;72.35
69359;HTU21D;56520;49.066;8.660;2023-08-17T10:39:23;25.95;73.44
69359;HTU21D;56520;49.066;8.660;2023-08-17T10:41:51;26.04;71.77
69359;HTU21D;56520;49.066;8.660;2023-08-17T10:50:21;26.71;71.10
69359;HTU21D;56520;49.066;8.660;2023-08-17T10:52:36;26.92;69.20
69359;HTU21D;56520;49.066;8.660;2023-08-17T10:55:11;27.06;69.78
69359;HTU21D;56520;49.066;8.660;2023-08-17T10:57:38;27.32;69.52
69359;HTU21D;56520;49.066;8.660;2023-08-17T11:00:14;27.54;69.22
69359;HTU21D;56520;49.066;8.660;2023-08-17T11:02:43;27.52;68.42
69359;HTU21D;56520;49.066;8.660;2023-08-17T11:05:10;27.69;68.54
69359;HTU21D;56520;49.066;8.660;2023-08-17T11:07:41;27.84;68.07
69359;HTU21D;56520;49.066;8.660;2023-08-17T11:10:30;28.04;67.29
69359;HTU21D;56520;49.066;8.660;2023-08-17T11:12:56;28.12;67.04
69359;HTU21D;56520;49.066;8.660;2023-08-17T11:15:44;28.38;66.45
69359;HTU21D;56520;49.066;8.660;2023-08-17T11:18:11;28.52;65.79
69359;HTU21D;56520;49.066;8.660;2023-08-17T11:20:38;28.63;64.58
69359;HTU21D;56520;49.066;8.660;2023-08-17T11:23:09;28.54;63.82
69359;HTU21D;56520;49.066;8.660;2023-08-17T11:25:35;28.05;62.44
69359;HTU21D;56520;49.066;8.660;2023-08-17T11:28:02;27.63;65.05
69359;HTU21D;56520;49.066;8.660;2023-08-17T11:30:28;27.56;65.57
69359;HTU21D;56520;49.066;8.660;2023-08-17T11:32:54;27.76;66.79
69359;HTU21D;56520;49.066;8.660;2023-08-17T11:35:21;27.89;65.86
69359;HTU21D;56520;49.066;8.660;2023-08-17T11:37:47;27.45;65.74
69359;HTU21D;56520;49.066;8.660;2023-08-17T11:40:16;26.92;67.04
69359;HTU21D;56520;49.066;8.660;2023-08-17T11:42:42;26.52;68.23
69359;HTU21D;56520;49.066;8.660;2023-08-17T11:45:09;26.17;68.91
69359;HTU21D;56520;49.066;8.660;2023-08-17T11:47:35;25.93;69.63
69359;HTU21D;56520;49.066;8.660;2023-08-17T11:50:04;25.77;70.07
69359;HTU21D;56520;49.066;8.660;2023-08-17T11:52:30;25.61;70.47
69359;HTU21D;56520;49.066;8.660;2023-08-17T11:54:59;25.49;70.54
69359;HTU21D;56520;49.066;8.660;2023-08-17T11:57:25;25.38;70.61
69359;HTU21D;56520;49.066;8.660;2023-08-17T11:59:58;25.24;70.58
69359;HTU21D;56520;49.066;8.660;2023-08-17T12:02:25;25.14;70.88
69359;HTU21D;56520;49.066;8.660;2023-08-17T12:04:51;25.05;71.32
69359;HTU21D;56520;49.066;8.660;2023-08-17T12:07:23;25.00;72.03
69359;HTU21D;56520;49.066;8.660;2023-08-17T12:09:50;24.90;72.38
69359;HTU21D;56520;49.066;8.660;2023-08-17T12:12:22;24.82;72.73
69359;HTU21D;56520;49.066;8.660;2023-08-17T12:14:48;24.74;73.57
69359;HTU21D;56520;49.066;8.660;2023-08-17T12:17:15;24.68;73.45
69359;HTU21D;56520;49.066;8.660;2023-08-17T12:19:41;24.63;74.06
69359;HTU21D;56520;49.066;8.660;2023-08-17T12:22:07;24.58;74.05
69359;HTU21D;56520;49.066;8.660;2023-08-17T12:24:32;24.55;74.25
69359;HTU21D;56520;49.066;8.660;2023-08-17T12:26:59;24.50;74.54
69359;HTU21D;56520;49.066;8.660;2023-08-17T12:29:24;24.50;74.67
69359;HTU21D;56520;49.066;8.660;2023-08-17T12:31:51;24.51;74.74
69359;HTU21D;56520;49.066;8.660;2023-08-17T12:34:17;24.57;75.16
69359;HTU21D;56520;49.066;8.660;2023-08-17T12:36:43;24.68;75.38
69359;HTU21D;56520;49.066;8.660;2023-08-17T12:39:12;24.82;75.47
69359;HTU21D;56520;49.066;8.660;2023-08-17T12:41:37;24.98;75.19
69359;HTU21D;56520;49.066;8.660;2023-08-17T12:44:02;25.18;73.92
69359;HTU21D;56520;49.066;8.660;2023-08-17T12:46:28;25.35;73.37
69359;HTU21D;56520;49.066;8.660;2023-08-17T12:48:58;25.51;73.42
69359;HTU21D;56520;49.066;8.660;2023-08-17T12:51:23;25.72;73.36
69359;HTU21D;56520;49.066;8.660;2023-08-17T12:53:49;25.79;72.99
69359;HTU21D;56520;49.066;8.660;2023-08-17T12:56:14;25.91;72.55
69359;HTU21D;56520;49.066;8.660;2023-08-17T12:58:39;25.95;72.38
69359;HTU21D;56520;49.066;8.660;2023-08-17T13:01:05;25.96;72.33
69359;HTU21D;56520;49.066;8.660;2023-08-17T13:03:30;25.92;72.45
69359;HTU21D;56520;49.066;8.660;2023-08-17T13:05:56;25.88;72.38
69359;HTU21D;56520;49.066;8.660;2023-08-17T13:08:21;25.89;72.26
69359;HTU21D;56520;49.066;8.660;2023-08-17T13:10:47;25.93;72.21
69359;HTU21D;56520;49.066;8.660;2023-08-17T13:13:12;25.97;71.25
69359;HTU21D;56520;49.066;8.660;2023-08-17T13:15:38;26.08;72.09
69359;HTU21D;56520;49.066;8.660;2023-08-17T13:18:03;26.11;71.60
69359;HTU21D;56520;49.066;8.660;2023-08-17T13:20:29;26.08;71.59
69359;HTU21D;56520;49.066;8.660;2023-08-17T13:22:54;26.09;71.98
69359;HTU21D;56520;49.066;8.660;2023-08-17T13:25:20;26.21;71.97
69359;HTU21D;56520;49.066;8.660;2023-08-17T13:27:45;26.28;71.45
69359;HTU21D;56520;49.066;8.660;2023-08-17T13:30:11;26.22;71.37
69359;HTU21D;56520;49.066;8.660;2023-08-17T13:32:36;26.20;71.80
69359;HTU21D;56520;49.066;8.660;2023-08-17T13:35:02;26.19;71.13
69359;HTU21D;56520;49.066;8.660;2023-08-17T13:37:28;26.11;71.14
69359;HTU21D;56520;49.066;8.660;2023-08-17T13:39:54;26.12;71.50
69359;HTU21D;56520;49.066;8.660;2023-08-17T13:42:19;26.16;71.41
69359;HTU21D;56520;49.066;8.660;2023-08-17T13:44:45;26.20;71.27
69359;HTU21D;56520;49.066;8.660;2023-08-17T13:47:11;26.20;71.27
69359;HTU21D;56520;49.066;8.660;2023-08-17T13:49:36;26.18;71.44
69359;HTU21D;56520;49.066;8.660;2023-08-17T13:52:02;26.22;71.84
69359;HTU21D;56520;49.066;8.660;2023-08-17T13:54:27;26.30;71.67
69359;HTU21D;56520;49.066;8.660;2023-08-17T13:56:53;26.38;71.74
69359;HTU21D;56520;49.066;8.660;2023-08-17T13:59:21;26.43;71.50
69359;HTU21D;56520;49.066;8.660;2023-08-17T14:01:46;26.47;71.44
69359;HTU21D;56520;49.066;8.660;2023-08-17T14:04:14;26.49;71.50
69359;HTU21D;56520;49.066;8.660;2023-08-17T14:06:40;26.52;71.10
69359;HTU21D;56520;49.066;8.660;2023-08-17T14:09:06;26.51;71.37
69359;HTU21D;56520;49.066;8.660;2023-08-17T14:11:32;26.53;71.33
69359;HTU21D;56520;49.066;8.660;2023-08-17T14:13:57;26.58;70.82
69359;HTU21D;56520;49.066;8.660;2023-08-17T14:16:22;26.57;71.14
69359;HTU21D;56520;49.066;8.660;2023-08-17T14:18:48;26.62;71.39
69359;HTU21D;56520;49.066;8.660;2023-08-17T14:21:13;26.65;71.19
69359;HTU21D;56520;49.066;8.660;2023-08-17T14:23:39;26.76;71.16
69359;HTU21D;56520;49.066;8.660;2023-08-17T14:26:05;26.94;71.06
69359;HTU21D;56520;49.066;8.660;2023-08-17T14:28:30;27.09;70.61
69359;HTU21D;56520;49.066;8.660;2023-08-17T14:30:56;27.16;70.18
69359;HTU21D;56520;49.066;8.660;2023-08-17T14:33:21;27.16;69.42
69359;HTU21D;56520;49.066;8.660;2023-08-17T14:35:47;27.23;70.07
69359;HTU21D;56520;49.066;8.660;2023-08-17T14:38:12;27.43;69.69
69359;HTU21D;56520;49.066;8.660;2023-08-17T14:40:44;27.65;69.44
69359;HTU21D;56520;49.066;8.660;2023-08-17T14:43:13;27.82;67.75
69359;HTU21D;56520;49.066;8.660;2023-08-17T14:45:42;27.89;67.57
69359;HTU21D;56520;49.066;8.660;2023-08-17T14:48:08;28.02;66.15
69359;HTU21D;56520;49.066;8.660;2023-08-17T14:50:34;28.15;66.06
69359;HTU21D;56520;49.066;8.660;2023-08-17T14:53:00;28.27;65.82
69359;HTU21D;56520;49.066;8.660;2023-08-17T14:55:32;28.45;66.20
69359;HTU21D;56520;49.066;8.660;2023-08-17T14:57:57;28.61;65.39
69359;HTU21D;56520;49.066;8.660;2023-08-17T15:00:24;28.77;63.95
69359;HTU21D;56520;49.066;8.660;2023-08-17T15:02:49;28.80;63.65
69359;HTU21D;56520;49.066;8.660;2023-08-17T15:05:15;28.87;61.98
69359;HTU21D;56520;49.066;8.660;2023-08-17T15:07:41;28.88;61.56
69359;HTU21D;56520;49.066;8.660;2023-08-17T15:10:06;28.85;62.37
69359;HTU21D;56520;49.066;8.660;2023-08-17T15:12:32;28.91;62.40
69359;HTU21D;56520;49.066;8.660;2023-08-17T15:14:57;29.02;62.98
69359;HTU21D;56520;49.066;8.660;2023-08-17T15:17:23;29.08;63.15
69359;HTU21D;56520;49.066;8.660;2023-08-17T15:19:48;29.09;62.37
69359;HTU21D;56520;49.066;8.660;2023-08-17T15:22:13;29.07;61.70